Main page
METAR-TAF:

METAR-TAF

Airports :

Nancy – Ochey Air Base

Nancy, France

latitude: 48-35N, longitude: 005-58E, elevation: 336 m

Current weather observation

The report was made 37 minutes ago, at 13:00 UTC
Wind 10 kt from the Northeast, varying between North and East
Temperature 21°C
Humidity 43%
Pressure 1028 hPa
Visibility 10 km or more
no clouds below 1500 m and no cumulonimbus

METAR: LFSO 281300Z AUTO 04010KT 010V080 CAVOK 21/08 Q1028 NOSIG

Time: 15:37 (13:37 UTC)

Forecast

The report was made 5 hours and 37 minutes ago, at 08:00 UTC
Forecast valid from 28 at 09 UTC to 29 at 09 UTC
Wind 8 kt from the East/Northeast
Visibility 10 km or more
no clouds below 1500 m and no cumulonimbus

TAF: LFSO 280800Z 2809/2909 06008KT CAVOK

Weather observations and forecasts of more than 4000 airports (METAR and TAF reports).

The available stations are represented by yellow and red dots on the map.

Hover mouse over dot to see the name of the station.

Then click to see weather observations and forecasts.

To change the map : click on the green buttons with a black cross to zoom in, on the green button with a dash to zoom out, or on the green arrows for adjacent maps.


METAR-TAF: